Time;durP1;ratioP1;P1;durP2;ratioP2;P2;SDS_P1;SDS_P2;PMS_P1;PMS_P2;Temp;Humidity;BMP_temperature;BMP_pressure;BME280_temperature;BME280_humidity;BME280_pressure;Samples;Min_cycle;Max_cycle;Signal;HPM_P1;HPM_P2
2022/03/11 00:00:53;;;;;;;4.15;2.72;;;18.40;50.00;;;;;;4879592;29;20172;-84
2022/03/11 00:03:20;;;;;;;3.40;2.60;;;18.40;50.00;;;;;;4862934;29;20522;-82
2022/03/11 00:05:46;;;;;;;3.92;2.60;;;18.40;50.00;;;;;;4847785;29;20182;-83
2022/03/11 00:08:12;;;;;;;3.85;2.45;;;18.40;49.90;;;;;;4862859;29;20160;-81
2022/03/11 00:10:38;;;;;;;4.07;2.55;;;18.40;50.00;;;;;;4847202;29;20263;-81
2022/03/11 00:13:03;;;;;;;4.68;2.75;;;18.30;49.90;;;;;;4847633;29;20259;-81
2022/03/11 00:15:29;;;;;;;3.67;2.30;;;18.30;50.00;;;;;;4862539;29;20584;-82
2022/03/11 00:17:55;;;;;;;4.68;2.75;;;18.40;49.70;;;;;;4862863;29;20655;-81
2022/03/11 00:20:21;;;;;;;4.35;2.42;;;18.40;50.10;;;;;;4879323;29;20216;-84
2022/03/11 00:22:48;;;;;;;4.82;2.60;;;18.40;49.90;;;;;;4847205;29;20180;-80
2022/03/11 00:25:14;;;;;;;4.70;2.47;;;18.40;49.40;;;;;;4862773;29;20168;-81
2022/03/11 00:27:39;;;;;;;6.13;2.58;;;18.40;49.70;;;;;;4879235;29;20220;-82
2022/03/11 00:30:05;;;;;;;4.10;2.50;;;18.40;50.00;;;;;;4847141;29;20168;-81
2022/03/11 00:32:31;;;;;;;3.40;2.33;;;18.40;49.60;;;;;;4862789;29;20215;-83
2022/03/11 00:34:57;;;;;;;3.80;2.70;;;18.40;49.60;;;;;;4879191;29;20172;-81
2022/03/11 00:37:22;;;;;;;4.40;3.05;;;18.40;50.00;;;;;;4847309;29;20180;-82
2022/03/11 00:39:48;;;;;;;5.43;2.60;;;18.40;49.60;;;;;;4864285;29;20184;-82
2022/03/11 00:42:14;;;;;;;5.25;2.70;;;18.40;49.60;;;;;;4850766;29;20172;-82
2022/03/11 00:44:40;;;;;;;3.42;2.20;;;18.40;49.60;;;;;;4850635;29;20537;-84
2022/03/11 00:47:07;;;;;;;3.83;2.50;;;18.40;49.60;;;;;;4866115;29;20164;-83
2022/03/11 00:49:33;;;;;;;4.75;2.55;;;18.40;49.60;;;;;;4850673;29;20259;-83
2022/03/11 00:51:58;;;;;;;5.35;2.40;;;18.40;49.50;;;;;;4850433;29;20340;-82
2022/03/11 00:54:25;;;;;;;4.80;2.80;;;18.40;50.00;;;;;;4850531;29;20623;-81
2022/03/11 00:56:50;;;;;;;3.65;2.30;;;18.40;49.70;;;;;;4866075;29;20540;-84
2022/03/11 00:59:16;;;;;;;3.08;2.40;;;18.40;49.50;;;;;;4865915;29;20691;-83
2022/03/11 01:01:42;;;;;;;3.97;2.63;;;18.40;49.50;;;;;;4850450;29;20591;-83
2022/03/11 01:04:07;;;;;;;4.93;2.63;;;18.40;50.00;;;;;;4865743;29;20188;-82
2022/03/11 01:06:36;;;;;;;4.93;2.80;;;18.40;50.00;;;;;;4865680;29;20171;-82
2022/03/11 01:09:02;;;;;;;4.05;2.45;;;18.40;49.40;;;;;;4882354;29;20632;-81
2022/03/11 01:11:28;;;;;;;3.45;2.47;;;18.40;49.60;;;;;;4865485;29;20613;-82
2022/03/11 01:13:54;;;;;;;4.57;2.53;;;18.30;49.50;;;;;;4865645;29;20168;-82
2022/03/11 01:16:19;;;;;;;4.88;2.50;;;18.40;49.70;;;;;;4865308;29;20220;-83
2022/03/11 01:18:45;;;;;;;5.28;2.63;;;18.30;49.80;;;;;;4865768;29;20188;-81
2022/03/11 01:21:12;;;;;;;4.10;2.40;;;18.30;49.70;;;;;;4865504;29;20172;-84
2022/03/11 01:23:38;;;;;;;5.97;2.80;;;18.30;49.70;;;;;;4850136;29;20207;-83
2022/03/11 01:26:03;;;;;;;3.25;2.50;;;18.30;50.00;;;;;;4865428;29;20604;-84
2022/03/11 01:28:29;;;;;;;4.20;2.53;;;18.30;49.90;;;;;;4865468;29;20164;-81
2022/03/11 01:30:55;;;;;;;4.35;2.42;;;18.30;50.00;;;;;;4850072;29;20647;-81
2022/03/11 01:33:21;;;;;;;5.97;2.72;;;18.30;49.70;;;;;;4849930;29;20176;-81
2022/03/11 01:35:48;;;;;;;3.83;2.60;;;18.30;49.90;;;;;;4865323;29;20165;-81
2022/03/11 01:38:14;;;;;;;4.22;2.42;;;18.30;50.20;;;;;;4865391;29;20168;-81
2022/03/11 01:40:40;;;;;;;5.25;2.60;;;18.30;50.00;;;;;;4881710;29;20171;-83
2022/03/11 01:43:13;;;;;;;4.88;2.60;;;18.20;50.00;;;;;;4865298;29;20621;-81
2022/03/11 01:45:39;;;;;;;3.40;2.45;;;18.20;49.70;;;;;;4865172;29;20149;-84
2022/03/11 01:48:04;;;;;;;3.40;2.50;;;18.30;50.00;;;;;;4864974;29;20165;-83
2022/03/11 01:50:30;;;;;;;3.20;2.47;;;18.30;49.80;;;;;;4864906;29;20247;-82
2022/03/11 01:52:55;;;;;;;4.68;2.30;;;18.30;50.10;;;;;;4881132;29;20196;-83
2022/03/11 01:55:21;;;;;;;3.28;2.50;;;18.30;50.00;;;;;;4865113;29;20169;-84
2022/03/11 01:57:47;;;;;;;3.17;2.58;;;18.30;50.20;;;;;;4864864;29;20188;-81
2022/03/11 02:00:13;;;;;;;4.97;2.50;;;18.20;49.50;;;;;;4881449;29;20176;-81
2022/03/11 02:02:39;;;;;;;4.22;2.70;;;18.30;49.90;;;;;;4849402;29;20168;-82
2022/03/11 02:05:05;;;;;;;4.30;2.80;;;18.30;49.90;;;;;;4849271;29;20168;-82
2022/03/11 02:07:30;;;;;;;4.75;2.72;;;18.30;50.00;;;;;;4864801;29;20164;-81
2022/03/11 02:09:56;;;;;;;3.30;2.40;;;18.20;50.10;;;;;;4849086;29;20700;-81
2022/03/11 02:12:30;;;;;;;3.90;2.30;;;18.10;50.30;;;;;;4864493;29;20656;-82
2022/03/11 02:14:57;;;;;;;4.28;2.60;;;18.20;49.90;;;;;;4849165;29;20652;-81
2022/03/11 02:17:22;;;;;;;4.15;2.35;;;18.20;50.30;;;;;;4830600;29;20236;-82
2022/03/11 02:19:48;;;;;;;3.45;2.17;;;18.20;50.20;;;;;;4842791;29;20173;-83
2022/03/11 02:22:17;;;;;;;3.67;2.45;;;18.20;50.10;;;;;;4827584;29;20185;-83
2022/03/11 02:24:44;;;;;;;4.47;2.42;;;18.20;50.00;;;;;;4826891;29;20193;-82
2022/03/11 02:27:11;;;;;;;3.88;2.50;;;18.20;50.20;;;;;;4826796;29;20185;-83
2022/03/11 02:29:38;;;;;;;3.85;2.50;;;18.20;50.00;;;;;;4826953;29;20185;-83
2022/03/11 02:32:06;;;;;;;3.65;2.30;;;18.20;50.30;;;;;;4841942;29;20261;-83
2022/03/11 02:34:33;;;;;;;3.17;2.30;;;18.10;50.10;;;;;;4826775;29;20190;-83
2022/03/11 02:36:59;;;;;;;4.40;2.58;;;18.20;50.30;;;;;;4826639;29;20193;-85
2022/03/11 02:39:25;;;;;;;3.00;2.40;;;18.10;50.70;;;;;;4826239;29;20721;-82
2022/03/11 02:41:51;;;;;;;2.80;2.25;;;18.10;50.30;;;;;;4827350;29;20218;-82
2022/03/11 02:44:17;;;;;;;3.00;2.28;;;18.10;49.80;;;;;;4812193;29;20181;-81
2022/03/11 02:46:43;;;;;;;5.28;2.35;;;18.10;50.10;;;;;;4827819;29;20509;-84
2022/03/11 02:49:08;;;;;;;3.28;2.30;;;18.10;50.40;;;;;;4827655;29;20163;-81
2022/03/11 02:51:34;;;;;;;3.78;2.47;;;18.10;50.00;;;;;;4811821;29;20212;-83
2022/03/11 02:54:01;;;;;;;3.42;2.42;;;18.20;50.20;;;;;;4812000;29;20177;-81
2022/03/11 02:56:29;;;;;;;3.30;2.38;;;18.20;49.80;;;;;;4841760;29;20668;-81
2022/03/11 02:58:56;;;;;;;3.90;2.60;;;18.20;49.80;;;;;;4826370;29;20664;-82
2022/03/11 03:01:23;;;;;;;3.92;2.58;;;18.10;50.20;;;;;;4826368;29;20186;-81
2022/03/11 03:03:49;;;;;;;6.05;2.72;;;18.10;50.20;;;;;;4826093;29;20193;-82
2022/03/11 03:06:14;;;;;;;4.47;2.35;;;18.10;50.20;;;;;;4811702;29;20192;-84
2022/03/11 03:08:40;;;;;;;2.88;2.08;;;18.10;49.90;;;;;;4842242;29;20644;-81
2022/03/11 03:11:05;;;;;;;2.70;2.00;;;18.10;50.00;;;;;;4826893;29;20200;-84
2022/03/11 03:13:31;;;;;;;3.47;2.60;;;18.10;50.40;;;;;;4827094;29;20178;-83
2022/03/11 03:15:56;;;;;;;4.72;2.58;;;18.10;49.80;;;;;;4826696;29;20233;-84
2022/03/11 03:18:22;;;;;;;3.63;2.50;;;18.10;50.00;;;;;;4811560;29;20177;-82
2022/03/11 03:20:48;;;;;;;4.25;2.58;;;18.20;50.30;;;;;;4826737;29;20188;-84
2022/03/11 03:23:13;;;;;;;3.22;2.40;;;18.10;50.70;;;;;;4827172;29;20626;-83
2022/03/11 03:25:39;;;;;;;3.40;2.20;;;18.10;50.40;;;;;;4811689;29;20204;-81
2022/03/11 03:28:04;;;;;;;4.80;2.72;;;18.10;50.80;;;;;;4826708;29;20170;-82
2022/03/11 03:30:30;;;;;;;5.40;2.40;;;18.00;50.70;;;;;;4841810;29;20166;-84
2022/03/11 03:32:56;;;;;;;5.70;2.80;;;18.00;50.70;;;;;;4826697;29;20192;-82
2022/03/11 03:35:22;;;;;;;2.97;2.50;;;18.00;50.50;;;;;;4826731;29;20268;-81
2022/03/11 03:37:48;;;;;;;4.35;2.42;;;18.00;50.30;;;;;;4826658;29;20622;-83
2022/03/11 03:40:14;;;;;;;4.18;2.42;;;18.10;50.30;;;;;;4841799;29;20543;-83
2022/03/11 03:42:45;;;;;;;3.50;2.50;;;18.00;50.80;;;;;;4841508;29;20170;-81
2022/03/11 03:45:11;;;;;;;4.75;2.90;;;18.00;50.50;;;;;;4826909;29;20177;-80
2022/03/11 03:47:37;;;;;;;3.88;2.53;;;18.00;50.30;;;;;;4841497;29;20170;-82
2022/03/11 03:50:03;;;;;;;4.63;2.35;;;18.00;50.00;;;;;;4841407;29;20214;-82
2022/03/11 03:52:29;;;;;;;4.00;2.50;;;18.00;50.10;;;;;;4826333;29;20258;-81
2022/03/11 03:54:56;;;;;;;2.92;2.22;;;18.10;50.50;;;;;;4841492;29;20176;-80
2022/03/11 03:57:22;;;;;;;3.38;2.10;;;18.00;50.30;;;;;;4841368;29;20677;-83
2022/03/11 03:59:48;;;;;;;4.78;2.15;;;18.00;50.30;;;;;;4841524;29;20207;-83
2022/03/11 04:02:14;;;;;;;3.28;2.30;;;18.00;50.30;;;;;;4841592;29;20205;-82
2022/03/11 04:04:39;;;;;;;3.53;2.40;;;18.00;50.70;;;;;;4841261;29;20164;-81
2022/03/11 04:07:05;;;;;;;4.20;2.47;;;18.00;50.40;;;;;;4841337;29;20162;-81
2022/03/11 04:09:31;;;;;;;4.32;2.63;;;18.00;51.10;;;;;;4841324;29;20626;-83
2022/03/11 04:11:57;;;;;;;5.03;2.33;;;18.00;50.60;;;;;;4841267;29;20201;-83
2022/03/11 04:14:23;;;;;;;4.50;2.42;;;18.00;50.50;;;;;;4827405;29;20230;-83
2022/03/11 04:16:49;;;;;;;4.57;2.85;;;18.00;50.60;;;;;;4829419;29;20233;-82
2022/03/11 04:19:14;;;;;;;3.28;2.30;;;18.00;50.30;;;;;;4814850;29;20264;-82
2022/03/11 04:21:43;;;;;;;3.60;2.20;;;18.00;50.90;;;;;;4844812;29;20181;-81
2022/03/11 04:24:14;;;;;;;3.35;2.50;;;18.00;50.30;;;;;;4844106;29;20197;-80
2022/03/11 04:26:44;;;;;;;3.53;2.47;;;18.00;51.20;;;;;;4830066;29;20553;-83
2022/03/11 04:29:12;;;;;;;3.70;2.42;;;18.00;50.40;;;;;;4828931;29;20657;-82
2022/03/11 04:31:40;;;;;;;3.55;2.30;;;18.00;50.60;;;;;;4828759;29;20221;-80
2022/03/11 04:34:07;;;;;;;4.90;2.38;;;18.00;50.70;;;;;;4844158;29;20189;-82
2022/03/11 04:36:38;;;;;;;3.08;2.30;;;18.00;50.70;;;;;;4828715;29;20213;-82
2022/03/11 04:39:07;;;;;;;3.47;2.28;;;17.90;50.70;;;;;;4829561;29;20267;-83
2022/03/11 04:41:35;;;;;;;3.00;2.22;;;18.00;50.50;;;;;;4844001;29;20193;-82
2022/03/11 04:44:02;;;;;;;4.95;2.13;;;18.00;50.70;;;;;;4828441;29;20181;-81
2022/03/11 04:46:30;;;;;;;3.75;2.38;;;18.00;50.60;;;;;;4829159;29;20241;-83
2022/03/11 04:48:57;;;;;;;3.58;2.35;;;17.90;50.60;;;;;;4843936;29;20645;-83
2022/03/11 04:51:25;;;;;;;4.20;2.40;;;17.90;50.70;;;;;;4828473;29;20225;-80
2022/03/11 04:53:52;;;;;;;3.53;2.65;;;17.90;50.90;;;;;;4828517;29;20205;-83
2022/03/11 04:56:17;;;;;;;3.22;2.40;;;17.80;50.90;;;;;;4827954;29;20189;-82
2022/03/11 04:58:45;;;;;;;3.70;2.50;;;17.90;50.80;;;;;;4829353;29;20535;-81
2022/03/11 05:01:12;;;;;;;3.42;2.20;;;17.90;51.00;;;;;;4828320;29;20712;-83
2022/03/11 05:03:39;;;;;;;4.05;2.63;;;18.00;50.50;;;;;;4828178;29;20189;-81
2022/03/11 05:06:06;;;;;;;3.50;2.08;;;17.90;50.90;;;;;;4828204;29;20200;-82
2022/03/11 05:08:33;;;;;;;3.40;2.40;;;17.90;50.90;;;;;;4828108;29;20212;-84
2022/03/11 05:11:00;;;;;;;3.85;2.40;;;17.90;50.70;;;;;;4827996;29;20365;-81
2022/03/11 05:13:27;;;;;;;4.32;2.70;;;17.90;50.30;;;;;;4827993;29;20200;-83
2022/03/11 05:15:52;;;;;;;4.32;2.35;;;17.90;50.80;;;;;;4843890;29;20229;-82
2022/03/11 05:18:18;;;;;;;3.42;2.22;;;17.90;50.50;;;;;;4814190;29;20634;-83
2022/03/11 05:20:44;;;;;;;3.28;2.40;;;17.90;50.90;;;;;;4828835;29;20199;-82
2022/03/11 05:23:10;;;;;;;3.78;2.15;;;17.90;50.60;;;;;;4828855;29;20197;-80
2022/03/11 05:25:37;;;;;;;3.10;2.47;;;17.90;50.80;;;;;;4827847;29;20166;-84
2022/03/11 05:28:04;;;;;;;3.08;2.22;;;17.90;50.70;;;;;;4843040;29;20190;-84
2022/03/11 05:30:30;;;;;;;3.47;2.40;;;17.90;50.80;;;;;;4843066;29;20196;-82
2022/03/11 05:32:55;;;;;;;3.42;2.50;;;18.00;50.40;;;;;;4828387;29;20201;-83
2022/03/11 05:35:21;;;;;;;4.15;2.60;;;18.00;50.50;;;;;;4828524;29;20185;-82
2022/03/11 05:37:47;;;;;;;3.08;2.40;;;17.90;50.40;;;;;;4828414;29;20186;-81
2022/03/11 05:40:14;;;;;;;3.30;2.45;;;17.90;50.60;;;;;;4843919;29;20202;-81
2022/03/11 05:42:40;;;;;;;4.20;2.60;;;17.90;49.70;;;;;;4843897;29;20516;-83
2022/03/11 05:45:08;;;;;;;4.35;2.67;;;17.90;50.30;;;;;;4843847;29;20193;-84
2022/03/11 05:47:34;;;;;;;5.05;2.60;;;17.90;50.60;;;;;;4843470;29;20173;-82
2022/03/11 05:50:00;;;;;;;3.85;2.78;;;17.90;50.50;;;;;;4843394;29;20166;-81
2022/03/11 05:52:26;;;;;;;2.88;2.00;;;17.90;50.30;;;;;;4828172;29;20246;-84
2022/03/11 05:54:53;;;;;;;2.78;2.40;;;18.00;49.50;;;;;;4843449;29;20173;-84
2022/03/11 05:57:19;;;;;;;4.43;2.42;;;18.10;49.80;;;;;;4843262;29;20622;-81
2022/03/11 05:59:45;;;;;;;3.63;2.42;;;18.10;50.20;;;;;;4828092;29;20194;-81
2022/03/11 06:02:10;;;;;;;3.55;2.17;;;18.10;49.80;;;;;;4843262;29;20180;-81
2022/03/11 06:04:37;;;;;;;2.83;2.30;;;18.10;49.10;;;;;;4828221;29;20264;-83
2022/03/11 06:07:07;;;;;;;3.28;2.40;;;18.10;49.20;;;;;;4831303;29;20225;-82
2022/03/11 06:09:33;;;;;;;3.90;2.33;;;18.20;49.20;;;;;;4847160;29;20561;-82
2022/03/11 06:11:59;;;;;;;2.85;2.30;;;18.20;48.90;;;;;;4848563;29;20226;-81
2022/03/11 06:14:24;;;;;;;3.50;2.35;;;18.10;49.20;;;;;;4832972;29;20621;-83
2022/03/11 06:16:50;;;;;;;3.80;2.38;;;18.10;48.70;;;;;;4847563;29;20237;-83
2022/03/11 06:19:20;;;;;;;3.40;2.50;;;18.20;48.70;;;;;;4813533;29;20523;-82
2022/03/11 06:21:50;;;;;;;3.55;2.25;;;18.30;48.60;;;;;;4827517;29;20658;-82
2022/03/11 06:24:17;;;;;;;3.25;2.30;;;18.30;47.80;;;;;;4842569;29;20182;-81
2022/03/11 06:26:44;;;;;;;4.25;2.50;;;18.40;48.00;;;;;;4828161;29;20189;-84
2022/03/11 06:29:12;;;;;;;2.92;2.20;;;18.40;48.40;;;;;;4829005;29;20181;-84
2022/03/11 06:31:38;;;;;;;4.03;2.83;;;18.30;48.40;;;;;;4828349;29;20552;-84
2022/03/11 06:34:08;;;;;;;3.03;2.03;;;18.40;48.00;;;;;;4828059;29;20181;-81
2022/03/11 06:36:36;;;;;;;3.08;2.08;;;18.40;48.50;;;;;;4827159;29;20242;-83
2022/03/11 06:39:03;;;;;;;2.60;2.30;;;18.40;48.20;;;;;;4826750;29;20225;-83
2022/03/11 06:41:30;;;;;;;3.10;2.42;;;18.40;48.40;;;;;;4826558;29;20213;-81
2022/03/11 06:43:57;;;;;;;3.00;2.35;;;18.40;48.30;;;;;;4826563;29;20220;-81
2022/03/11 06:46:24;;;;;;;3.00;2.40;;;18.30;48.30;;;;;;4826625;29;20209;-81
2022/03/11 06:48:51;;;;;;;2.92;2.05;;;18.40;48.50;;;;;;4841573;29;20189;-82
2022/03/11 06:51:17;;;;;;;2.72;2.00;;;18.30;48.10;;;;;;4826459;29;20688;-83
2022/03/11 06:53:44;;;;;;;2.90;2.35;;;18.40;47.50;;;;;;4826556;29;20555;-84
2022/03/11 06:56:11;;;;;;;2.70;2.20;;;18.40;48.10;;;;;;4826527;29;20260;-84
2022/03/11 06:58:38;;;;;;;3.45;2.45;;;18.50;48.30;;;;;;4826516;29;20189;-82
2022/03/11 07:01:04;;;;;;;2.97;2.20;;;18.40;47.10;;;;;;4843458;29;20213;-84
2022/03/11 07:03:31;;;;;;;2.22;2.00;;;18.50;48.10;;;;;;4842190;29;20168;-82
2022/03/11 07:05:57;;;;;;;3.05;2.38;;;18.30;48.10;;;;;;4842161;29;20210;-83
2022/03/11 07:08:22;;;;;;;3.58;2.20;;;18.50;47.90;;;;;;4826998;29;20221;-82
2022/03/11 07:10:49;;;;;;;2.53;2.30;;;18.50;47.30;;;;;;4842475;29;20173;-81
2022/03/11 07:13:14;;;;;;;3.78;2.35;;;18.50;48.00;;;;;;4842296;29;20177;-82
2022/03/11 07:15:40;;;;;;;5.68;2.00;;;18.60;47.80;;;;;;4847201;29;20166;-82
2022/03/11 07:18:06;;;;;;;2.67;2.13;;;18.50;47.60;;;;;;4848105;29;20223;-81
2022/03/11 07:20:31;;;;;;;3.17;2.38;;;18.50;47.80;;;;;;4848167;29;20191;-82
2022/03/11 07:22:57;;;;;;;2.67;2.08;;;18.50;48.20;;;;;;4847778;29;20175;-81
2022/03/11 07:25:23;;;;;;;4.18;2.58;;;18.50;48.00;;;;;;4863610;29;20160;-82
2022/03/11 07:27:49;;;;;;;2.60;2.30;;;18.50;47.80;;;;;;4863356;29;20173;-83
2022/03/11 07:30:15;;;;;;;4.07;2.45;;;18.50;47.50;;;;;;4863262;29;20172;-84
2022/03/11 07:32:41;;;;;;;4.13;2.20;;;18.60;47.50;;;;;;4863265;29;20200;-81
2022/03/11 07:35:09;;;;;;;2.88;2.35;;;18.50;47.60;;;;;;4863164;29;20176;-81
2022/03/11 07:37:36;;;;;;;3.40;2.47;;;18.50;47.70;;;;;;4880029;29;20176;-81
2022/03/11 07:40:03;;;;;;;2.75;2.47;;;18.50;47.30;;;;;;4863394;29;20172;-84
2022/03/11 07:42:29;;;;;;;4.78;2.60;;;18.60;47.50;;;;;;4880281;29;20176;-83
2022/03/11 07:44:55;;;;;;;2.78;2.10;;;18.60;47.40;;;;;;4863496;29;20172;-81
2022/03/11 07:47:22;;;;;;;2.80;2.33;;;18.60;46.80;;;;;;4864142;29;20156;-82
2022/03/11 07:49:48;;;;;;;3.35;2.50;;;18.70;46.90;;;;;;4831949;29;20191;-83
2022/03/11 07:52:17;;;;;;;2.60;2.25;;;18.70;46.60;;;;;;4848178;29;20259;-81
2022/03/11 07:54:45;;;;;;;2.85;2.28;;;18.70;46.60;;;;;;4848165;29;20219;-81
2022/03/11 07:57:11;;;;;;;2.17;1.98;;;18.70;46.70;;;;;;4849908;29;20263;-82
2022/03/11 07:59:40;;;;;;;3.97;2.30;;;18.70;46.20;;;;;;4869753;29;20201;-84
2022/03/11 08:02:08;;;;;;;2.80;2.40;;;18.80;46.60;;;;;;4835368;29;20241;-82
2022/03/11 08:04:35;;;;;;;2.88;2.47;;;18.70;46.40;;;;;;4832272;29;20188;-82
2022/03/11 08:07:06;;;;;;;4.47;2.90;;;18.80;46.30;;;;;;4832064;29;20267;-82
2022/03/11 08:09:34;;;;;;;2.78;2.15;;;18.80;46.30;;;;;;4848078;29;20212;-83
2022/03/11 08:12:02;;;;;;;2.92;2.30;;;18.70;46.80;;;;;;4831624;29;20703;-82
2022/03/11 08:14:29;;;;;;;3.80;2.25;;;18.70;46.70;;;;;;4847016;29;20622;-84
2022/03/11 08:17:00;;;;;;;2.75;2.00;;;18.80;46.90;;;;;;4830969;29;20315;-85
2022/03/11 08:19:27;;;;;;;2.75;2.20;;;18.70;46.80;;;;;;4832285;29;20184;-82
2022/03/11 08:21:54;;;;;;;3.55;2.75;;;18.70;45.90;;;;;;4833432;29;20278;-82
2022/03/11 08:24:21;;;;;;;4.15;2.65;;;18.70;46.00;;;;;;4816989;29;20551;-81
2022/03/11 08:26:48;;;;;;;3.63;2.42;;;18.80;45.10;;;;;;4831885;29;20570;-84
2022/03/11 08:29:16;;;;;;;3.88;2.80;;;18.80;45.80;;;;;;4846995;29;20191;-82
2022/03/11 08:31:44;;;;;;;3.47;2.53;;;18.80;45.60;;;;;;4847326;29;20691;-81
2022/03/11 08:34:11;;;;;;;5.32;2.90;;;18.80;45.00;;;;;;4831640;29;20587;-83
2022/03/11 08:36:39;;;;;;;2.97;2.35;;;18.70;45.20;;;;;;4846322;29;20196;-82
2022/03/11 08:39:07;;;;;;;2.45;2.25;;;18.70;45.30;;;;;;4832082;29;20679;-82
2022/03/11 08:41:34;;;;;;;3.08;2.65;;;18.80;46.20;;;;;;4831807;29;20271;-81
2022/03/11 08:44:01;;;;;;;2.85;2.53;;;18.70;45.50;;;;;;4831765;29;20180;-81
2022/03/11 08:46:30;;;;;;;3.00;2.60;;;18.70;44.90;;;;;;4846929;29;20188;-82
2022/03/11 08:48:57;;;;;;;3.03;2.50;;;18.70;45.00;;;;;;4832364;29;20188;-82
2022/03/11 08:51:23;;;;;;;2.97;2.50;;;18.70;45.50;;;;;;4831509;29;20245;-82
2022/03/11 08:53:50;;;;;;;2.75;2.30;;;18.70;45.30;;;;;;4832089;29;20200;-82
2022/03/11 08:56:21;;;;;;;2.92;2.40;;;18.80;45.90;;;;;;4831680;29;20553;-82
2022/03/11 08:58:49;;;;;;;3.80;2.30;;;18.70;45.10;;;;;;4847733;29;20618;-83
2022/03/11 09:01:16;;;;;;;3.53;2.60;;;18.80;45.00;;;;;;4833955;29;20260;-83
2022/03/11 09:03:43;;;;;;;3.25;2.75;;;18.80;44.50;;;;;;4865932;29;20191;-84
2022/03/11 09:06:09;;;;;;;3.47;2.70;;;18.80;44.90;;;;;;4866474;29;20160;-81
2022/03/11 09:08:35;;;;;;;2.90;2.60;;;18.80;45.50;;;;;;4853639;29;20707;-82
2022/03/11 09:11:02;;;;;;;2.80;2.50;;;18.90;45.50;;;;;;4869005;29;20164;-83
2022/03/11 09:13:28;;;;;;;4.30;2.80;;;18.80;45.20;;;;;;4852673;29;20195;-83
2022/03/11 09:15:54;;;;;;;3.30;2.70;;;18.90;45.20;;;;;;4830162;29;20565;-81
2022/03/11 09:18:20;;;;;;;2.58;2.22;;;18.90;44.70;;;;;;4849669;29;20173;-83
2022/03/11 09:20:47;;;;;;;4.72;2.58;;;18.90;45.30;;;;;;4850062;29;20665;-84
2022/03/11 09:23:17;;;;;;;3.53;2.58;;;18.90;45.30;;;;;;4848786;29;20203;-82
2022/03/11 09:25:43;;;;;;;3.03;2.50;;;18.90;44.80;;;;;;4832432;29;20196;-86
2022/03/11 09:28:10;;;;;;;2.95;2.40;;;19.00;44.70;;;;;;4848133;29;20177;-84
2022/03/11 09:30:37;;;;;;;3.28;2.42;;;19.00;44.60;;;;;;4818228;29;20228;-81
2022/03/11 09:33:06;;;;;;;3.33;2.40;;;18.90;44.60;;;;;;4848475;29;20230;-84
2022/03/11 09:35:33;;;;;;;3.38;2.50;;;19.00;44.90;;;;;;4832559;29;20205;-84
2022/03/11 09:38:03;;;;;;;3.78;2.70;;;19.00;44.50;;;;;;4851310;29;20197;-84
2022/03/11 09:40:47;;;;;;;;;;;;;;;;;;;;;
2022/03/11 09:43:15;;;;;;;3.97;2.45;;;19.10;44.90;;;;;;4833234;29;20284;-82
2022/03/11 09:45:45;;;;;;;2.92;2.53;;;19.10;44.60;;;;;;4835729;29;20181;-83
2022/03/11 09:48:15;;;;;;;2.55;2.17;;;19.00;45.20;;;;;;4846880;29;20189;-83
2022/03/11 09:50:49;;;;;;;3.30;2.60;;;19.00;45.00;;;;;;4833675;29;20238;-84
2022/03/11 09:53:21;;;;;;;3.97;2.55;;;19.00;44.80;;;;;;4837331;29;20227;-82
2022/03/11 09:55:57;;;;;;;2.95;2.50;;;19.20;44.80;;;;;;4836638;29;20599;-85
2022/03/11 09:58:28;;;;;;;2.78;2.53;;;19.10;44.80;;;;;;4832775;29;20200;-86
2022/03/11 10:00:56;;;;;;;3.95;2.65;;;19.10;45.00;;;;;;4834595;29;20672;-88
2022/03/11 10:03:27;;;;;;;2.67;2.38;;;19.20;44.80;;;;;;4833622;29;20185;-85
2022/03/11 10:06:52;;;;;;;3.92;2.60;;;19.20;44.70;;;;;;4833221;29;20641;-85
2022/03/11 10:10:20;;;;;;;2.83;2.33;;;19.10;44.50;;;;;;4843490;29;20209;-84
2022/03/11 10:19:56;;;;;;;2.72;2.40;;;19.00;45.50;;;;;;4783701;30;20195;-82
2022/03/11 10:22:47;;;;;;;;;;;;;;;;;;;;;
2022/03/11 10:26:25;;;;;;;3.10;2.70;;;19.10;44.80;;;;;;4779531;30;20190;-84
2022/03/11 10:40:19;;;;;;;3.53;2.75;;;19.20;44.40;;;;;;4615196;31;20202;-85
2022/03/11 10:57:15;;;;;;;3.97;2.90;;;19.10;43.90;;;;;;4588431;31;20224;-83
2022/03/11 11:00:03;;;;;;;;;;;;;;;;;;;;;
2022/03/11 11:02:36;;;;;;;4.78;3.15;;;19.00;44.00;;;;;;4554324;31;20219;-84
2022/03/11 11:05:13;;;;;;;3.42;2.55;;;19.10;43.40;;;;;;4564601;31;20192;-86
2022/03/11 11:07:58;;;;;;;3.80;2.83;;;19.10;43.80;;;;;;4641898;31;20745;-86
2022/03/11 11:10:26;;;;;;;3.63;3.08;;;19.10;43.80;;;;;;4595431;31;20198;-84
2022/03/11 11:12:52;;;;;;;4.07;3.38;;;19.10;43.90;;;;;;4635525;30;20250;-86
2022/03/11 11:15:18;;;;;;;4.30;3.00;;;19.20;43.30;;;;;;4666516;30;20241;-88
2022/03/11 11:17:46;;;;;;;3.40;2.75;;;19.10;43.00;;;;;;4667936;30;20235;-86
2022/03/11 11:20:25;;;;;;;4.35;3.35;;;19.20;43.50;;;;;;4664903;30;20202;-85
2022/03/11 11:22:53;;;;;;;4.18;2.90;;;19.10;43.40;;;;;;4698786;30;20213;-85
2022/03/11 11:25:20;;;;;;;3.83;2.95;;;19.10;44.10;;;;;;4733949;30;20162;-86
2022/03/11 11:27:46;;;;;;;4.63;3.10;;;19.10;44.00;;;;;;4734296;30;20688;-85
2022/03/11 11:30:17;;;;;;;3.78;2.97;;;19.10;43.40;;;;;;4736670;30;20668;-86
2022/03/11 11:32:43;;;;;;;3.40;3.03;;;19.20;43.40;;;;;;4757089;29;20219;-84
2022/03/11 11:35:27;;;;;;;4.20;3.30;;;19.10;42.90;;;;;;4809507;29;20182;-84
2022/03/11 11:37:54;;;;;;;3.88;3.13;;;19.10;42.90;;;;;;4809693;29;20168;-84
2022/03/11 11:40:21;;;;;;;3.42;2.83;;;19.10;43.10;;;;;;4864220;29;20200;-85
2022/03/11 11:43:30;;;;;;;3.38;3.00;;;19.10;43.50;;;;;;4864669;29;20165;-84
2022/03/11 11:46:17;;;;;;;3.97;3.22;;;19.20;44.00;;;;;;4863912;29;20681;-85
2022/03/11 11:48:54;;;;;;;3.45;2.80;;;19.20;43.00;;;;;;4864799;29;20189;-86
2022/03/11 11:51:53;;;;;;;4.88;3.33;;;19.10;43.60;;;;;;4864768;29;20197;-84
2022/03/11 11:54:34;;;;;;;5.55;3.20;;;19.10;42.10;;;;;;4864380;29;20259;-87
2022/03/11 11:57:02;;;;;;;3.63;2.83;;;19.10;43.20;;;;;;4864256;29;20244;-86
2022/03/11 11:59:29;;;;;;;3.47;2.97;;;19.10;42.90;;;;;;4862092;29;20161;-85
2022/03/11 12:01:56;;;;;;;4.00;3.13;;;19.20;42.80;;;;;;4860878;29;20640;-84
2022/03/11 12:04:24;;;;;;;4.60;3.30;;;19.20;41.70;;;;;;4861658;29;20157;-85
2022/03/11 12:07:01;;;;;;;4.30;3.20;;;19.20;42.80;;;;;;4861777;29;20172;-85
2022/03/11 12:09:51;;;;;;;3.55;2.92;;;19.10;42.70;;;;;;4860431;29;20164;-85
2022/03/11 12:12:57;;;;;;;3.38;2.95;;;19.20;43.40;;;;;;4860473;29;20656;-85
2022/03/11 12:15:31;;;;;;;4.90;3.20;;;19.20;43.70;;;;;;4861622;29;20267;-83
2022/03/11 12:18:01;;;;;;;3.97;2.97;;;19.10;42.90;;;;;;4843440;29;20704;-82
2022/03/11 12:20:49;;;;;;;5.40;3.10;;;19.20;42.50;;;;;;4842475;29;20625;-84
2022/03/11 12:23:19;;;;;;;3.65;3.20;;;19.20;42.50;;;;;;4842430;29;20205;-84
2022/03/11 12:25:54;;;;;;;4.45;3.40;;;19.20;42.80;;;;;;4842009;29;20222;-83
2022/03/11 12:28:31;;;;;;;3.67;3.20;;;19.20;43.00;;;;;;4842322;29;20180;-85
2022/03/11 12:30:58;;;;;;;4.55;3.05;;;19.20;42.80;;;;;;4842600;29;20166;-84
2022/03/11 12:33:30;;;;;;;3.83;3.10;;;19.20;42.50;;;;;;4842570;29;20213;-83
2022/03/11 12:35:57;;;;;;;5.40;2.97;;;19.20;43.80;;;;;;4847949;29;20178;-83
2022/03/11 12:38:25;;;;;;;3.58;3.10;;;19.20;42.10;;;;;;4849218;29;20222;-86
2022/03/11 12:40:51;;;;;;;3.42;2.85;;;19.20;42.50;;;;;;4849228;29;20166;-83
2022/03/11 12:43:17;;;;;;;8.40;3.35;;;19.10;43.20;;;;;;4851153;29;20178;-86
2022/03/11 12:45:50;;;;;;;3.47;2.95;;;19.10;41.20;;;;;;4853845;29;20165;-83
2022/03/11 12:48:18;;;;;;;3.28;2.90;;;19.20;43.50;;;;;;4838504;29;20196;-84
2022/03/11 12:50:45;;;;;;;4.15;3.30;;;19.10;43.10;;;;;;4854126;29;20174;-84
2022/03/11 12:53:11;;;;;;;3.50;2.92;;;19.10;42.40;;;;;;4854060;29;20205;-83
2022/03/11 12:55:38;;;;;;;3.20;2.90;;;19.10;43.00;;;;;;4833509;29;20177;-83
2022/03/11 12:58:07;;;;;;;3.38;2.83;;;19.10;43.50;;;;;;4846911;29;20197;-84
2022/03/11 13:00:36;;;;;;;5.07;3.17;;;19.10;42.50;;;;;;4832705;29;20173;-83
2022/03/11 13:03:08;;;;;;;5.38;3.22;;;19.20;41.90;;;;;;4847687;29;20169;-83
2022/03/11 13:05:34;;;;;;;5.57;3.08;;;19.10;42.60;;;;;;4833861;29;20185;-84
2022/03/11 13:08:03;;;;;;;3.75;3.20;;;19.10;41.60;;;;;;4845252;29;20622;-83
2022/03/11 13:10:29;;;;;;;4.18;3.42;;;19.20;42.10;;;;;;4846807;29;20153;-83
2022/03/11 13:12:56;;;;;;;4.80;3.15;;;19.20;42.10;;;;;;4845195;29;20220;-84
2022/03/11 13:15:24;;;;;;;4.10;3.22;;;19.20;41.90;;;;;;4846490;29;20161;-83
2022/03/11 13:17:52;;;;;;;3.53;3.10;;;19.10;43.40;;;;;;4845933;29;20225;-84
2022/03/11 13:20:35;;;;;;;7.53;3.25;;;19.10;42.50;;;;;;4847149;29;20162;-83
2022/03/11 13:23:10;;;;;;;3.53;2.90;;;19.20;42.10;;;;;;4846695;29;20177;-83
2022/03/11 13:25:38;;;;;;;3.90;3.15;;;19.20;41.40;;;;;;4846612;29;20616;-83
2022/03/11 13:28:04;;;;;;;3.25;2.80;;;19.20;42.40;;;;;;4829409;29;20278;-84
2022/03/11 13:30:36;;;;;;;10.93;3.90;;;19.20;42.20;;;;;;4845721;29;20250;-82